Bangor International Airport Bangor US
ICAO: KBGR
IATA: BGR
Category: Large
Scheduled Services: Yes

Elevation: 192 ft
TransAlt. 18000 ft.

Airport Communications:
APP/DEP:118.925
ASOS:127.75
ATIS:127.75
CLNC DEL:135.9
GND:121.9
ARNG OPS:41.2
ANG OPS:31.1
RDO:122.2
TWR:120.7
UNICOM:122.95

KBGR Zoom In..

If Map Doesn't Load, Click Here

Runways:

(A) RW 15 length 11440 ft width 200 ft
ILS 109.50 / hdg 153

(B) RW 33 length 11440 ft width 200 ft
ILS 109.50 / hdg 333

Location; KBGR
Day. 21 / Time. 15.53 Zulu
* Altimeter: 30.22
* Temperature: 16° c. 60.8°f.
* Wind from: 180° Speed 14 kn with Gusts up to 20 kn.
Dewpoint: 08° c.
Visibility: 10 Statute Miles.
Clouds: Few 3000 ft.
Clouds: Broken 8500 ft.
Clouds: Overcast 18000 ft.

KBGR 211553Z 18014G20KT 10SM FEW030 BKN085 OVC180 16/08 A3022 RMK AO2 SLP234 T01610083


Wind From 180°
Speed 14 kn.

 
 
jpsmedia.com for Web Design worldairports.se 2018   terms of use